Time;durP1;ratioP1;P1;durP2;ratioP2;P2;SDS_P1;SDS_P2;PMS_P1;PMS_P2;Temp;Humidity;BMP_temperature;BMP_pressure;BME280_temperature;BME280_humidity;BME280_pressure;Samples;Min_cycle;Max_cycle;Signal;HPM_P1;HPM_P2
2023/03/13 04:00:29;;;;;;;10.30;7.30;;;6.70;99.90;;;;;;5850633;23;20489;-79
2023/03/13 04:02:55;;;;;;;11.47;8.73;;;6.70;99.90;;;;;;4937784;29;20226;-79
2023/03/13 04:05:21;;;;;;;14.33;12.80;;;6.70;99.90;;;;;;4936543;29;20277;-79
2023/03/13 04:07:47;;;;;;;18.40;16.77;;;6.70;99.90;;;;;;4937859;29;20658;-80
2023/03/13 04:10:13;;;;;;;27.83;25.60;;;6.70;99.90;;;;;;4937382;29;20183;-80
2023/03/13 04:12:40;;;;;;;32.83;30.50;;;6.70;99.90;;;;;;4918186;29;20587;-79
2023/03/13 04:15:06;;;;;;;24.17;22.07;;;6.70;99.90;;;;;;4902466;29;20188;-80
2023/03/13 04:17:32;;;;;;;20.43;18.87;;;6.70;99.90;;;;;;4900642;29;20632;-79
2023/03/13 04:19:58;;;;;;;17.80;15.87;;;6.70;99.90;;;;;;4899192;29;20188;-80
2023/03/13 04:22:24;;;;;;;14.50;12.60;;;6.70;99.90;;;;;;4899838;29;20225;-81
2023/03/13 04:24:50;;;;;;;13.37;12.00;;;6.80;99.90;;;;;;4911217;29;20274;-80
2023/03/13 04:27:16;;;;;;;16.60;14.63;;;6.80;99.90;;;;;;4931235;29;20243;-80
2023/03/13 04:29:42;;;;;;;20.87;18.37;;;6.80;99.90;;;;;;4918813;29;20194;-81
2023/03/13 04:32:08;;;;;;;27.40;24.87;;;6.80;99.90;;;;;;4913228;29;20212;-80
2023/03/13 04:34:34;;;;;;;25.73;23.83;;;6.90;99.90;;;;;;4912229;29;20237;-78
2023/03/13 04:37:00;;;;;;;32.33;29.73;;;6.90;99.90;;;;;;4915645;29;20187;-79
2023/03/13 04:39:26;;;;;;;34.03;31.17;;;6.90;99.90;;;;;;4914453;29;20191;-77
2023/03/13 04:41:53;;;;;;;29.07;26.67;;;6.90;99.90;;;;;;4918507;29;20286;-78
2023/03/13 04:44:19;;;;;;;33.20;30.93;;;7.00;99.90;;;;;;4920810;29;20424;-77
2023/03/13 04:46:46;;;;;;;33.83;31.37;;;7.00;99.90;;;;;;4927561;29;20266;-77
2023/03/13 04:49:13;;;;;;;31.50;29.23;;;7.00;99.90;;;;;;4920205;29;20183;-78
2023/03/13 04:51:40;;;;;;;26.50;24.87;;;7.00;99.90;;;;;;4913686;29;20199;-77
2023/03/13 04:54:06;;;;;;;15.43;10.90;;;7.00;99.90;;;;;;4906323;29;20683;-78
2023/03/13 04:56:32;;;;;;;15.53;8.23;;;7.00;99.90;;;;;;4899134;29;20223;-78
2023/03/13 04:58:57;;;;;;;14.57;8.80;;;7.10;99.90;;;;;;4897870;29;20194;-81
2023/03/13 05:01:24;;;;;;;13.70;10.03;;;7.10;99.90;;;;;;4897556;29;20219;-81
2023/03/13 05:03:49;;;;;;;12.67;9.57;;;7.10;99.90;;;;;;4900895;29;20771;-78
2023/03/13 05:06:15;;;;;;;16.67;11.50;;;7.10;99.90;;;;;;4897451;29;20252;-79
2023/03/13 05:08:41;;;;;;;22.40;20.50;;;7.10;99.90;;;;;;4896255;29;20190;-80
2023/03/13 05:11:07;;;;;;;20.83;19.17;;;7.10;99.90;;;;;;4908058;29;20212;-77
2023/03/13 05:13:33;;;;;;;24.10;19.23;;;7.10;99.90;;;;;;4898692;29;20728;-79
2023/03/13 05:15:59;;;;;;;58.43;54.50;;;7.10;99.90;;;;;;4897868;29;20545;-79
2023/03/13 05:18:25;;;;;;;42.73;39.93;;;7.20;99.90;;;;;;4905313;29;20187;-79
2023/03/13 05:20:51;;;;;;;50.27;47.10;;;7.30;99.90;;;;;;4919251;29;20202;-78
2023/03/13 05:23:16;;;;;;;74.67;70.60;;;7.30;99.90;;;;;;4907501;29;20201;-79
2023/03/13 05:25:42;;;;;;;47.07;44.17;;;7.40;99.90;;;;;;4910355;29;20210;-79
2023/03/13 05:28:08;;;;;;;15.10;13.13;;;7.40;99.90;;;;;;4910801;29;20675;-79
2023/03/13 05:30:34;;;;;;;30.70;28.13;;;7.40;99.90;;;;;;4912337;29;20606;-79
2023/03/13 05:33:00;;;;;;;44.63;41.30;;;7.50;99.90;;;;;;4911144;29;20679;-80
2023/03/13 05:35:25;;;;;;;28.73;25.90;;;7.50;99.90;;;;;;4911574;29;20246;-78
2023/03/13 05:37:51;;;;;;;32.27;29.97;;;7.50;99.90;;;;;;4912128;29;20179;-79
2023/03/13 05:40:17;;;;;;;25.17;23.17;;;7.60;99.90;;;;;;4912003;29;20246;-78
2023/03/13 05:42:44;;;;;;;26.97;24.67;;;7.50;99.90;;;;;;4918836;29;20203;-79
2023/03/13 05:45:10;;;;;;;62.47;58.90;;;7.50;99.90;;;;;;4911176;29;20230;-79
2023/03/13 05:47:38;;;;;;;27.70;26.10;;;7.50;99.90;;;;;;4912143;29;20243;-79
2023/03/13 05:50:05;;;;;;;21.97;19.10;;;7.60;99.90;;;;;;4913265;29;20175;-79
2023/03/13 05:52:32;;;;;;;74.43;69.70;;;7.70;99.90;;;;;;4906155;29;20204;-79
2023/03/13 05:54:58;;;;;;;115.73;108.93;;;7.90;99.90;;;;;;4901811;29;20195;-79
2023/03/13 05:57:24;;;;;;;67.13;63.40;;;8.10;99.90;;;;;;4901570;29;20636;-79
2023/03/13 05:59:50;;;;;;;81.27;76.97;;;8.20;99.90;;;;;;4904609;29;20234;-80
2023/03/13 06:02:16;;;;;;;13.30;12.20;;;8.30;99.90;;;;;;4903720;29;20223;-79
2023/03/13 06:04:42;;;;;;;14.50;13.20;;;8.40;99.90;;;;;;4902199;29;20618;-74
2023/03/13 06:07:08;;;;;;;14.07;12.97;;;8.70;99.90;;;;;;4900836;29;20243;-74
2023/03/13 06:09:33;;;;;;;38.23;36.20;;;8.90;99.90;;;;;;4899596;29;20196;-75
2023/03/13 06:11:59;;;;;;;25.63;24.20;;;8.90;99.90;;;;;;4899063;29;20196;-74
2023/03/13 06:14:25;;;;;;;13.50;12.60;;;9.20;99.90;;;;;;4916532;29;20214;-74
2023/03/13 06:16:53;;;;;;;8.23;7.53;;;9.40;99.90;;;;;;4917650;29;20655;-74
2023/03/13 06:19:19;;;;;;;11.37;10.77;;;9.50;99.90;;;;;;4916653;29;20191;-74
2023/03/13 06:21:45;;;;;;;12.17;11.43;;;9.60;99.90;;;;;;4917754;29;20207;-74
2023/03/13 06:24:11;;;;;;;37.80;35.47;;;9.70;99.90;;;;;;4917773;29;20278;-74
2023/03/13 06:26:37;;;;;;;73.37;69.60;;;9.80;99.90;;;;;;4918030;29;20214;-74
2023/03/13 06:29:03;;;;;;;92.77;88.20;;;10.00;99.90;;;;;;4917320;29;20187;-74
2023/03/13 06:31:28;;;;;;;125.87;119.73;;;10.10;99.90;;;;;;4917471;29;20214;-74
2023/03/13 06:33:55;;;;;;;22.63;21.30;;;10.30;99.90;;;;;;4916679;29;20217;-74
2023/03/13 06:36:24;;;;;;;8.80;8.37;;;10.50;99.90;;;;;;4917386;29;20187;-74
2023/03/13 06:38:50;;;;;;;32.43;30.50;;;10.60;99.90;;;;;;4915872;29;20261;-74
2023/03/13 06:41:17;;;;;;;50.20;47.80;;;10.80;99.90;;;;;;4917673;29;20207;-75
2023/03/13 06:43:43;;;;;;;26.40;24.90;;;10.90;99.90;;;;;;4917177;29;20215;-74
2023/03/13 06:46:16;;;;;;;7.20;6.87;;;11.00;99.90;;;;;;4917552;29;20185;-74
2023/03/13 06:48:43;;;;;;;7.67;7.17;;;11.20;99.90;;;;;;4917161;29;20187;-74
2023/03/13 06:51:13;;;;;;;12.80;11.93;;;11.30;99.90;;;;;;4917173;29;20202;-74
2023/03/13 06:53:39;;;;;;;12.67;12.00;;;11.40;99.90;;;;;;4917555;29;20654;-74
2023/03/13 06:56:06;;;;;;;7.47;6.77;;;11.60;99.90;;;;;;4917597;29;20220;-75
2023/03/13 06:58:32;;;;;;;40.27;38.13;;;11.80;99.90;;;;;;4917240;29;20540;-74
2023/03/13 07:01:07;;;;;;;40.43;38.47;;;11.90;99.90;;;;;;4916212;29;20221;-74
2023/03/13 07:03:34;;;;;;;21.10;20.07;;;12.00;99.90;;;;;;4916777;29;20273;-74
2023/03/13 07:06:00;;;;;;;4.70;4.50;;;12.10;99.90;;;;;;4915616;29;20214;-74
2023/03/13 07:08:26;;;;;;;4.10;3.80;;;12.20;99.90;;;;;;4915625;29;20261;-74
2023/03/13 07:10:57;;;;;;;5.07;4.40;;;12.30;99.90;;;;;;4916057;29;20585;-76
2023/03/13 07:13:22;;;;;;;5.30;5.00;;;12.30;99.90;;;;;;4915599;29;20191;-77
2023/03/13 07:15:49;;;;;;;4.70;4.53;;;12.30;99.90;;;;;;4916957;29;20183;-76
2023/03/13 07:18:15;;;;;;;5.50;5.10;;;12.30;99.90;;;;;;4915803;29;20607;-76
2023/03/13 07:20:40;;;;;;;4.47;4.30;;;12.30;99.90;;;;;;4916421;29;20210;-76
2023/03/13 07:23:06;;;;;;;4.37;4.27;;;12.30;99.90;;;;;;4915536;29;20698;-76
2023/03/13 07:25:32;;;;;;;5.13;4.93;;;12.20;99.90;;;;;;4917912;29;20635;-76
2023/03/13 07:27:59;;;;;;;5.33;5.13;;;12.20;99.90;;;;;;4915696;29;20197;-76
2023/03/13 07:30:26;;;;;;;5.70;5.50;;;12.20;99.90;;;;;;4917620;29;20234;-76
2023/03/13 07:32:51;;;;;;;5.60;5.33;;;12.20;99.90;;;;;;4918338;29;20187;-76
2023/03/13 07:35:18;;;;;;;5.50;5.30;;;12.30;99.90;;;;;;4917610;29;20187;-76
2023/03/13 07:37:44;;;;;;;4.97;4.80;;;12.40;99.90;;;;;;4916516;29;20195;-76
2023/03/13 07:40:10;;;;;;;4.33;4.13;;;12.40;99.90;;;;;;4916222;29;20193;-76
2023/03/13 07:42:40;;;;;;;4.40;4.23;;;12.50;99.90;;;;;;4916058;29;20211;-77
2023/03/13 07:45:07;;;;;;;4.33;4.13;;;12.50;99.90;;;;;;4916522;29;20183;-76
2023/03/13 07:47:33;;;;;;;4.17;3.87;;;12.50;99.90;;;;;;4916434;29;20269;-77
2023/03/13 07:49:59;;;;;;;4.03;3.87;;;12.60;99.90;;;;;;4915087;29;20190;-76
2023/03/13 07:52:26;;;;;;;6.23;6.03;;;12.60;99.90;;;;;;4915075;29;20207;-77
2023/03/13 07:54:53;;;;;;;5.80;5.60;;;12.60;99.90;;;;;;4916155;29;20740;-77
2023/03/13 07:57:19;;;;;;;11.23;10.77;;;12.70;99.90;;;;;;4914991;29;20183;-76
2023/03/13 07:59:45;;;;;;;10.37;9.77;;;12.70;99.90;;;;;;4914638;29;20233;-76
2023/03/13 08:02:12;;;;;;;4.23;4.00;;;12.70;99.90;;;;;;4915981;29;20260;-76
2023/03/13 08:04:39;;;;;;;4.37;4.17;;;12.70;99.90;;;;;;4914595;29;20196;-77
2023/03/13 08:07:11;;;;;;;4.60;4.50;;;12.60;99.90;;;;;;4917673;29;20182;-76
2023/03/13 08:09:37;;;;;;;5.33;4.97;;;12.60;99.90;;;;;;4916803;29;20213;-77
2023/03/13 08:12:03;;;;;;;5.00;4.90;;;12.70;99.90;;;;;;4918086;29;20707;-76
2023/03/13 08:14:29;;;;;;;4.97;4.67;;;12.70;99.90;;;;;;4916167;29;20806;-76
2023/03/13 08:16:54;;;;;;;5.07;4.77;;;12.80;99.90;;;;;;4916411;29;20187;-76
2023/03/13 08:19:20;;;;;;;8.57;8.17;;;12.90;99.90;;;;;;4914954;29;20234;-76
2023/03/13 08:21:46;;;;;;;9.50;9.00;;;13.10;99.90;;;;;;4918161;29;20210;-75
2023/03/13 08:24:12;;;;;;;12.00;11.50;;;13.30;99.90;;;;;;4920761;29;20222;-75
2023/03/13 08:26:40;;;;;;;17.07;16.23;;;13.50;99.90;;;;;;4916925;29;20199;-75
2023/03/13 08:29:09;;;;;;;22.70;21.60;;;13.70;99.90;;;;;;4915273;29;20663;-77
2023/03/13 08:31:46;;;;;;;24.83;23.73;;;14.00;99.90;;;;;;4914603;29;20203;-76
2023/03/13 08:34:13;;;;;;;25.43;24.13;;;14.40;99.90;;;;;;4914747;29;20258;-78
2023/03/13 08:36:40;;;;;;;12.67;12.10;;;14.80;99.90;;;;;;4915637;29;20185;-77
2023/03/13 08:39:26;;;;;;;6.83;6.23;;;15.00;99.90;;;;;;4927571;29;20198;-78
2023/03/13 08:41:52;;;;;;;9.33;8.73;;;15.20;99.90;;;;;;4934252;29;20217;-77
2023/03/13 08:44:19;;;;;;;8.37;7.87;;;15.60;99.90;;;;;;4933393;29;20205;-76
2023/03/13 08:46:45;;;;;;;8.57;8.17;;;16.00;99.90;;;;;;4934132;29;20179;-75
2023/03/13 08:49:12;;;;;;;8.43;8.13;;;16.30;99.90;;;;;;4931541;29;20796;-75
2023/03/13 08:51:38;;;;;;;5.80;5.60;;;16.30;99.90;;;;;;4932354;29;20207;-77
2023/03/13 08:54:04;;;;;;;15.30;14.53;;;16.60;99.90;;;;;;4934538;29;20186;-75
2023/03/13 08:56:30;;;;;;;28.50;27.20;;;17.00;99.90;;;;;;4934415;29;20187;-75
2023/03/13 08:58:59;;;;;;;24.63;23.53;;;17.30;99.90;;;;;;4932873;29;20367;-75
2023/03/13 09:01:30;;;;;;;19.77;18.90;;;17.30;99.90;;;;;;4934234;29;20243;-76
2023/03/13 09:03:56;;;;;;;18.60;17.73;;;17.00;99.90;;;;;;4933104;29;20249;-75
2023/03/13 09:06:22;;;;;;;18.10;17.20;;;16.70;99.90;;;;;;4933464;29;20194;-76
2023/03/13 09:08:48;;;;;;;17.23;16.33;;;16.60;99.90;;;;;;4933889;29;20186;-76
2023/03/13 09:11:16;;;;;;;14.90;14.20;;;16.20;99.90;;;;;;4934002;29;20240;-76
2023/03/13 09:13:44;;;;;;;12.23;11.43;;;15.80;99.90;;;;;;4938561;29;20194;-76
2023/03/13 09:16:16;;;;;;;11.20;10.70;;;15.50;99.90;;;;;;4933861;29;20190;-76
2023/03/13 09:18:43;;;;;;;8.07;7.53;;;15.50;99.90;;;;;;4935796;29;20566;-76
2023/03/13 09:21:12;;;;;;;7.57;7.27;;;15.50;99.90;;;;;;4916681;29;20215;-76
2023/03/13 09:23:38;;;;;;;10.33;9.83;;;15.50;99.90;;;;;;4901217;29;20216;-76
2023/03/13 09:26:04;;;;;;;10.47;10.07;;;15.60;99.90;;;;;;4896954;29;20198;-78
2023/03/13 09:28:30;;;;;;;8.13;7.83;;;15.60;99.90;;;;;;4913285;29;20179;-76
2023/03/13 09:31:06;;;;;;;8.77;8.37;;;15.50;99.90;;;;;;4913849;29;20739;-76
2023/03/13 09:33:32;;;;;;;6.53;6.27;;;15.50;99.90;;;;;;4916524;29;20226;-76
2023/03/13 09:35:58;;;;;;;9.10;8.70;;;15.60;99.90;;;;;;4915242;29;20209;-76
2023/03/13 09:38:24;;;;;;;8.80;8.47;;;15.70;99.90;;;;;;4913390;29;20191;-76
2023/03/13 09:40:52;;;;;;;9.93;9.33;;;15.80;99.90;;;;;;4913625;29;20210;-76
2023/03/13 09:43:26;;;;;;;12.27;11.57;;;15.80;99.90;;;;;;4913654;29;20218;-76
2023/03/13 09:45:59;;;;;;;12.40;11.80;;;16.00;99.90;;;;;;4916139;29;20182;-75
2023/03/13 09:48:48;;;;;;;10.87;10.37;;;16.20;99.90;;;;;;4930863;29;20190;-76
2023/03/13 09:51:28;;;;;;;9.27;8.87;;;16.30;99.90;;;;;;4931561;29;20285;-76
2023/03/13 09:54:36;;;;;;;8.80;8.43;;;16.20;99.90;;;;;;4933403;29;20281;-76
2023/03/13 09:57:40;;;;;;;7.30;7.03;;;16.20;99.90;;;;;;4893699;29;20215;-76
2023/03/13 10:00:15;;;;;;;8.30;8.00;;;16.10;99.90;;;;;;4852163;29;20215;-75
2023/03/13 10:02:55;;;;;;;9.60;9.10;;;16.10;99.90;;;;;;4887587;29;20226;-75
2023/03/13 10:05:24;;;;;;;7.73;7.37;;;16.10;99.90;;;;;;4901941;29;20274;-75
2023/03/13 10:07:53;;;;;;;7.27;6.97;;;16.10;99.90;;;;;;4894498;29;20192;-75
2023/03/13 10:10:27;;;;;;;7.60;7.00;;;16.10;99.90;;;;;;4895314;29;20184;-75
2023/03/13 10:13:02;;;;;;;9.50;9.10;;;16.40;99.90;;;;;;4905641;29;20549;-76
2023/03/13 10:15:31;;;;;;;8.67;8.17;;;16.70;99.90;;;;;;4905923;29;20190;-75
2023/03/13 10:17:59;;;;;;;12.27;11.67;;;17.30;99.90;;;;;;4915553;29;20187;-75
2023/03/13 10:20:33;;;;;;;10.20;8.07;;;17.60;99.90;;;;;;4918618;29;20193;-75
2023/03/13 10:23:06;;;;;;;7.47;6.97;;;18.00;99.90;;;;;;4918905;29;20706;-76
2023/03/13 10:25:34;;;;;;;7.17;6.83;;;18.20;99.90;;;;;;4916791;29;20274;-76
2023/03/13 10:28:00;;;;;;;6.33;5.80;;;19.00;99.90;;;;;;4916740;29;20682;-76
2023/03/13 10:30:35;;;;;;;4.47;4.03;;;19.70;99.90;;;;;;4916099;29;20219;-76
2023/03/13 10:33:06;;;;;;;7.67;5.47;;;20.40;99.90;;;;;;4917852;29;20769;-76
2023/03/13 10:35:38;;;;;;;6.40;6.10;;;20.70;99.90;;;;;;4918187;29;20592;-76
2023/03/13 10:38:12;;;;;;;11.53;11.03;;;20.90;99.90;;;;;;4917782;29;20194;-76
2023/03/13 10:40:39;;;;;;;16.00;15.23;;;21.10;99.90;;;;;;4917138;29;20205;-76
2023/03/13 10:43:17;;;;;;;20.85;19.77;;;20.90;99.90;;;;;;4917426;29;20215;-75
2023/03/13 10:45:43;;;;;;;17.25;16.40;;;20.80;99.90;;;;;;4917744;29;20230;-75
2023/03/13 10:48:12;;;;;;;18.80;17.80;;;19.70;99.90;;;;;;4917721;29;20694;-77
2023/03/13 10:50:45;;;;;;;19.70;18.73;;;19.70;99.90;;;;;;4916329;29;20207;-76
2023/03/13 10:53:22;;;;;;;16.93;15.77;;;20.00;99.90;;;;;;4918972;29;20317;-76
2023/03/13 10:55:50;;;;;;;24.33;23.13;;;20.00;99.90;;;;;;4917264;29;20187;-76
2023/03/13 10:58:45;;;;;;;24.13;22.87;;;19.70;99.90;;;;;;4919669;29;20215;-76
2023/03/13 11:01:23;;;;;;;18.43;17.47;;;19.20;99.90;;;;;;4918494;29;20237;-76
2023/03/13 11:03:51;;;;;;;17.17;16.23;;;19.10;99.90;;;;;;4917438;29;20309;-76
2023/03/13 11:06:27;;;;;;;15.20;14.50;;;19.10;99.90;;;;;;4917094;29;20207;-76
2023/03/13 11:09:14;;;;;;;12.70;11.57;;;19.10;99.90;;;;;;4916085;29;20179;-76
2023/03/13 11:11:53;;;;;;;18.90;17.90;;;19.00;99.90;;;;;;4915783;29;20213;-76
2023/03/13 11:14:24;;;;;;;13.60;12.87;;;19.00;99.90;;;;;;4915855;29;20189;-76
2023/03/13 11:16:54;;;;;;;21.47;20.43;;;19.60;99.90;;;;;;4915919;29;20191;-77
2023/03/13 11:19:44;;;;;;;24.50;23.30;;;19.70;99.90;;;;;;4915631;29;20195;-77
2023/03/13 11:22:13;;;;;;;13.47;12.73;;;19.30;99.90;;;;;;4918054;29;20914;-77
2023/03/13 11:25:03;;;;;;;13.93;13.23;;;19.10;99.90;;;;;;4916232;29;20191;-77
2023/03/13 11:27:55;;;;;;;14.20;13.50;;;19.00;99.90;;;;;;4917286;29;20743;-77
2023/03/13 11:30:53;;;;;;;10.93;10.43;;;19.00;99.90;;;;;;4880640;29;20286;-77
2023/03/13 11:33:46;;;;;;;9.10;8.60;;;19.00;99.90;;;;;;4900378;29;20195;-77
2023/03/13 11:36:58;;;;;;;15.87;15.10;;;19.40;99.90;;;;;;4909622;29;20187;-77
2023/03/13 11:39:38;;;;;;;26.17;24.70;;;20.00;99.90;;;;;;4897198;29;20981;-77
2023/03/13 11:42:16;;;;;;;23.60;22.10;;;19.70;99.90;;;;;;4897202;29;20203;-77
2023/03/13 11:45:09;;;;;;;25.23;23.93;;;19.40;99.90;;;;;;4903075;29;20206;-77
2023/03/13 11:47:45;;;;;;;28.73;27.27;;;19.60;99.90;;;;;;4918649;29;20186;-77
2023/03/13 11:50:22;;;;;;;23.80;22.70;;;20.00;99.90;;;;;;4916932;29;20206;-76
2023/03/13 11:53:03;;;;;;;17.52;16.67;;;20.90;99.90;;;;;;4917717;29;20187;-77
2023/03/13 11:55:40;;;;;;;11.63;10.60;;;21.30;99.90;;;;;;4918911;29;20230;-77
2023/03/13 11:58:38;;;;;;;10.10;9.27;;;21.00;99.90;;;;;;4918475;29;20195;-77
2023/03/13 12:01:12;;;;;;;5.90;5.47;;;21.60;99.90;;;;;;4917332;29;20298;-77
2023/03/13 12:04:03;;;;;;;5.45;5.05;;;22.20;99.90;;;;;;4918575;29;20214;-77
2023/03/13 12:07:09;;;;;;;6.32;5.85;;;22.80;99.90;;;;;;4918867;29;20187;-78
2023/03/13 12:09:54;;;;;;;7.32;6.85;;;22.70;99.90;;;;;;4920121;29;20601;-78
2023/03/13 12:12:33;;;;;;;6.35;5.82;;;23.30;99.90;;;;;;4919827;29;20698;-78
2023/03/13 12:15:01;;;;;;;4.38;4.18;;;23.70;99.90;;;;;;4921474;29;20197;-78
2023/03/13 12:17:42;;;;;;;3.33;3.17;;;23.50;99.60;;;;;;4931032;29;20722;-76
2023/03/13 12:20:18;;;;;;;3.58;3.47;;;24.60;99.30;;;;;;4933228;29;20277;-76
2023/03/13 12:22:59;;;;;;;6.43;6.13;;;24.70;97.90;;;;;;4935002;29;20205;-76
2023/03/13 12:25:43;;;;;;;9.00;8.27;;;25.50;95.00;;;;;;4937924;29;20185;-76
2023/03/13 12:28:42;;;;;;;7.25;6.85;;;25.90;94.60;;;;;;4940716;29;20273;-78
2023/03/13 12:31:12;;;;;;;3.40;3.13;;;25.70;94.00;;;;;;4929695;29;20206;-79
2023/03/13 12:33:52;;;;;;;3.65;3.45;;;25.00;93.00;;;;;;4936916;29;20505;-76
2023/03/13 12:36:34;;;;;;;3.05;2.75;;;25.00;91.70;;;;;;4935361;29;20681;-76
2023/03/13 12:39:09;;;;;;;3.80;3.60;;;24.00;93.60;;;;;;4937425;29;20285;-76
2023/03/13 12:41:53;;;;;;;3.80;3.47;;;24.00;93.90;;;;;;4937825;29;20202;-75
2023/03/13 12:44:19;;;;;;;3.55;3.35;;;24.10;92.70;;;;;;4940959;29;20229;-78
2023/03/13 12:47:06;;;;;;;3.33;3.20;;;24.00;93.40;;;;;;4936222;29;20174;-76
2023/03/13 12:49:55;;;;;;;3.50;3.30;;;24.50;92.60;;;;;;4933222;29;20194;-77
2023/03/13 12:53:09;;;;;;;3.83;3.53;;;24.30;92.30;;;;;;4934279;29;20202;-77
2023/03/13 12:55:57;;;;;;;4.05;3.85;;;24.00;92.40;;;;;;4894150;29;20616;-77
2023/03/13 12:58:37;;;;;;;3.75;3.40;;;24.50;92.90;;;;;;4894720;29;20615;-78
2023/03/13 13:01:05;;;;;;;4.35;3.90;;;24.80;92.60;;;;;;4927574;29;20221;-79
2023/03/13 13:03:44;;;;;;;4.47;4.15;;;25.60;91.80;;;;;;4934280;29;20210;-78
2023/03/13 13:06:13;;;;;;;5.60;5.10;;;25.90;89.20;;;;;;4934682;29;20187;-78
2023/03/13 13:08:53;;;;;;;16.60;15.73;;;26.60;87.80;;;;;;4934243;29;20643;-77
2023/03/13 13:11:37;;;;;;;44.83;42.67;;;27.40;85.50;;;;;;4934227;29;20201;-77
2023/03/13 13:14:08;;;;;;;64.90;61.78;;;27.50;83.40;;;;;;4936265;29;20193;-76
2023/03/13 13:16:37;;;;;;;74.18;70.32;;;27.40;81.90;;;;;;4939049;29;20186;-76
2023/03/13 13:19:22;;;;;;;66.30;63.05;;;26.50;82.80;;;;;;4938198;29;20558;-77
2023/03/13 13:22:25;;;;;;;71.53;68.03;;;26.30;82.30;;;;;;4935103;29;20626;-77
2023/03/13 13:25:00;;;;;;;75.10;71.28;;;26.10;81.90;;;;;;4934439;29;20198;-77
2023/03/13 13:27:35;;;;;;;66.18;62.83;;;26.50;79.90;;;;;;4934024;29;20568;-77
2023/03/13 13:30:01;;;;;;;72.60;68.97;;;26.80;79.00;;;;;;4933736;29;20233;-74
2023/03/13 13:32:41;;;;;;;79.10;75.15;;;27.20;78.80;;;;;;4932708;29;20207;-74
2023/03/13 13:35:21;;;;;;;71.18;67.75;;;28.00;79.00;;;;;;4933922;29;20234;-75
2023/03/13 13:37:48;;;;;;;76.35;72.68;;;27.20;79.00;;;;;;4933591;29;20196;-74
2023/03/13 13:40:28;;;;;;;65.40;62.33;;;26.80;79.70;;;;;;4933498;29;20182;-75
2023/03/13 13:43:03;;;;;;;75.00;71.40;;;26.10;80.10;;;;;;4912154;29;20207;-75
2023/03/13 13:45:37;;;;;;;60.35;57.25;;;25.40;82.20;;;;;;4896585;29;20191;-75
2023/03/13 13:48:29;;;;;;;66.20;63.00;;;25.60;79.10;;;;;;4895890;29;20231;-75
2023/03/13 13:51:10;;;;;;;61.90;58.55;;;25.50;79.00;;;;;;4899198;29;20208;-74
2023/03/13 13:53:54;;;;;;;84.47;80.20;;;24.60;82.10;;;;;;4899353;29;20195;-74
2023/03/13 13:56:26;;;;;;;60.88;57.75;;;23.90;84.50;;;;;;4899329;29;20188;-73
2023/03/13 13:59:03;;;;;;;68.57;65.05;;;23.50;84.20;;;;;;4899389;29;20274;-74
2023/03/13 14:01:30;;;;;;;34.95;33.03;;;23.50;86.20;;;;;;4911961;29;20718;-74
2023/03/13 14:04:11;;;;;;;31.55;29.85;;;23.40;87.10;;;;;;4917983;29;20776;-73
2023/03/13 14:06:41;;;;;;;21.83;20.52;;;23.30;87.10;;;;;;4918689;29;20179;-74
2023/03/13 14:09:21;;;;;;;26.52;25.17;;;23.60;86.50;;;;;;4916636;29;20237;-74
2023/03/13 14:11:47;;;;;;;11.32;10.25;;;23.50;86.70;;;;;;4917754;29;20209;-73
2023/03/13 14:14:18;;;;;;;8.30;7.90;;;23.40;88.30;;;;;;4918139;29;20274;-74
2023/03/13 14:16:52;;;;;;;13.85;13.05;;;23.60;88.40;;;;;;4917899;29;20206;-74
2023/03/13 14:19:32;;;;;;;27.58;26.08;;;23.60;86.00;;;;;;4916106;29;20683;-73
2023/03/13 14:22:03;;;;;;;22.42;21.23;;;23.30;84.50;;;;;;4916726;29;20210;-73
2023/03/13 14:24:28;;;;;;;13.88;13.07;;;23.20;85.90;;;;;;4917310;29;20229;-73
2023/03/13 14:26:54;;;;;;;8.70;8.07;;;23.20;87.10;;;;;;4916679;29;20648;-74
2023/03/13 14:29:24;;;;;;;8.63;7.93;;;23.00;87.60;;;;;;4914477;29;20235;-74
2023/03/13 14:31:58;;;;;;;9.25;8.32;;;23.10;87.40;;;;;;4916325;29;20210;-73
2023/03/13 14:34:25;;;;;;;13.50;12.45;;;23.10;88.10;;;;;;4916662;29;20194;-75
2023/03/13 14:36:54;;;;;;;6.95;6.30;;;23.20;87.00;;;;;;4918040;29;20197;-73
2023/03/13 14:39:36;;;;;;;3.55;3.17;;;23.20;88.90;;;;;;4917907;29;20672;-72
2023/03/13 14:42:13;;;;;;;7.50;7.10;;;23.40;90.00;;;;;;4916865;29;20206;-72
2023/03/13 14:44:42;;;;;;;22.83;21.42;;;24.40;84.60;;;;;;4916383;29;20823;-72
2023/03/13 14:47:29;;;;;;;43.13;40.60;;;25.70;80.70;;;;;;4917666;29;20214;-72
2023/03/13 14:49:58;;;;;;;75.70;72.07;;;26.50;77.70;;;;;;4917125;29;20198;-73
2023/03/13 14:52:26;;;;;;;79.53;75.18;;;25.80;79.00;;;;;;4916254;29;20578;-76
2023/03/13 14:55:03;;;;;;;66.68;63.38;;;25.60;79.30;;;;;;4916476;29;20183;-71
2023/03/13 14:57:30;;;;;;;69.03;65.63;;;26.70;77.30;;;;;;4908894;29;20198;-71
2023/03/13 15:00:28;;;;;;;53.38;50.58;;;27.40;74.90;;;;;;4912331;29;20318;-71
2023/03/13 15:03:15;;;;;;;35.80;33.90;;;27.80;72.10;;;;;;4908850;29;20679;-71
2023/03/13 15:05:43;;;;;;;33.38;31.30;;;27.20;71.70;;;;;;4916885;29;20222;-71
2023/03/13 15:08:16;;;;;;;19.52;18.42;;;27.00;73.50;;;;;;4917103;29;20183;-71
2023/03/13 15:10:42;;;;;;;36.13;34.33;;;27.10;71.10;;;;;;4916375;29;20211;-71
2023/03/13 15:13:18;;;;;;;35.10;33.22;;;26.60;72.70;;;;;;4917132;29;20655;-71
2023/03/13 15:15:46;;;;;;;55.65;52.75;;;25.20;75.00;;;;;;4917013;29;20217;-71
2023/03/13 15:18:23;;;;;;;79.38;74.95;;;24.30;76.40;;;;;;4924264;29;20193;-71
2023/03/13 15:20:54;;;;;;;72.25;68.53;;;23.50;82.10;;;;;;4934305;29;20256;-71
2023/03/13 15:23:20;;;;;;;56.22;53.08;;;23.10;81.80;;;;;;4912700;29;20242;-71
2023/03/13 15:25:47;;;;;;;33.53;31.75;;;22.80;82.20;;;;;;4912894;29;20207;-71
2023/03/13 15:28:19;;;;;;;15.43;14.63;;;22.50;84.20;;;;;;4916055;29;20237;-71
2023/03/13 15:30:47;;;;;;;9.70;7.57;;;22.10;85.20;;;;;;4916753;29;20264;-70
2023/03/13 15:33:15;;;;;;;5.28;4.90;;;21.80;85.80;;;;;;4916701;29;20791;-71
2023/03/13 15:35:42;;;;;;;6.45;3.97;;;21.60;86.70;;;;;;4915385;29;20694;-70
2023/03/13 15:38:19;;;;;;;4.10;3.75;;;21.50;88.00;;;;;;4921693;29;20358;-71
2023/03/13 15:40:45;;;;;;;4.25;3.78;;;21.60;88.20;;;;;;4925857;29;20210;-71
2023/03/13 15:43:12;;;;;;;4.63;3.78;;;22.00;89.20;;;;;;4916655;29;20330;-71
2023/03/13 15:45:41;;;;;;;4.82;3.90;;;22.60;87.10;;;;;;4916580;29;20210;-71
2023/03/13 15:48:13;;;;;;;3.83;3.55;;;22.70;85.80;;;;;;4916514;29;20644;-71
2023/03/13 15:50:39;;;;;;;4.32;3.92;;;22.40;86.40;;;;;;4916329;29;20199;-71
2023/03/13 15:53:16;;;;;;;5.00;3.72;;;22.00;87.20;;;;;;4916400;29;20210;-71
2023/03/13 15:55:42;;;;;;;3.83;3.63;;;21.70;88.70;;;;;;4916061;29;20234;-70
2023/03/13 15:58:09;;;;;;;4.07;3.88;;;21.30;90.20;;;;;;4916000;29;20570;-71
2023/03/13 16:00:35;;;;;;;4.40;3.97;;;21.20;90.50;;;;;;4915782;29;20246;-71
2023/03/13 16:03:01;;;;;;;4.22;3.95;;;21.10;89.10;;;;;;4916225;29;20246;-71
2023/03/13 16:05:28;;;;;;;3.78;3.67;;;21.20;90.30;;;;;;4916687;29;20191;-70
2023/03/13 16:07:54;;;;;;;5.90;3.65;;;21.20;89.80;;;;;;4915082;29;20175;-71
2023/03/13 16:10:27;;;;;;;6.65;3.20;;;21.20;89.60;;;;;;4915827;29;20193;-71
2023/03/13 16:12:53;;;;;;;3.63;3.30;;;21.00;90.20;;;;;;4909423;29;20656;-75
2023/03/13 16:15:19;;;;;;;5.70;4.18;;;21.00;90.00;;;;;;4940306;23;20699;-72
2023/03/13 16:17:45;;;;;;;6.00;3.90;;;20.90;90.30;;;;;;4915732;29;20179;-72
2023/03/13 16:20:17;;;;;;;6.50;4.93;;;20.90;90.40;;;;;;4931683;29;20249;-72
2023/03/13 16:22:43;;;;;;;4.97;4.63;;;21.50;90.10;;;;;;4934704;29;20178;-72
2023/03/13 16:25:10;;;;;;;5.82;5.30;;;21.60;90.10;;;;;;4920297;29;20341;-71
2023/03/13 16:27:36;;;;;;;5.55;5.25;;;21.50;90.70;;;;;;4915557;29;20226;-72
2023/03/13 16:30:05;;;;;;;4.07;3.78;;;22.30;90.00;;;;;;4915402;29;20187;-74
2023/03/13 16:32:31;;;;;;;3.38;3.17;;;22.60;88.50;;;;;;4913975;29;20697;-72
2023/03/13 16:34:58;;;;;;;4.15;3.85;;;22.30;87.80;;;;;;4914488;29;20202;-73
2023/03/13 16:37:24;;;;;;;4.22;3.92;;;21.90;89.20;;;;;;4915329;29;20194;-73
2023/03/13 16:39:50;;;;;;;5.68;5.38;;;21.10;90.60;;;;;;4924992;29;20187;-72
2023/03/13 16:42:16;;;;;;;6.32;5.05;;;20.70;91.30;;;;;;4923064;29;20191;-72
2023/03/13 16:44:41;;;;;;;5.07;3.30;;;20.50;92.00;;;;;;4915624;29;20260;-73
2023/03/13 16:47:19;;;;;;;3.90;3.70;;;20.20;92.30;;;;;;4915770;29;20241;-73
2023/03/13 16:49:45;;;;;;;4.33;4.20;;;20.00;92.80;;;;;;4915497;29;20548;-74
2023/03/13 16:52:15;;;;;;;7.93;7.63;;;19.70;93.00;;;;;;4914228;29;20190;-73
2023/03/13 16:54:42;;;;;;;13.25;12.55;;;19.60;93.60;;;;;;4911356;29;20270;-72
2023/03/13 16:57:13;;;;;;;16.53;15.83;;;19.40;93.70;;;;;;4912985;29;20194;-74
2023/03/13 16:59:39;;;;;;;17.00;15.90;;;19.40;94.40;;;;;;4913659;29;20215;-72